createdAt,value
2017-09-13T00:00:14.612Z,0
2017-09-13T00:01:16.487Z,0
2017-09-13T00:02:30.638Z,0
2017-09-13T00:03:32.515Z,0
2017-09-13T00:04:34.395Z,0
2017-09-13T00:05:36.281Z,0
2017-09-13T00:06:38.109Z,0
2017-09-13T00:07:39.928Z,0
2017-09-13T00:08:41.814Z,0
2017-09-13T00:09:43.686Z,0
2017-09-13T00:10:45.575Z,0
2017-09-13T00:11:59.731Z,0
2017-09-13T00:13:01.645Z,0
2017-09-13T00:14:03.525Z,0
2017-09-13T00:15:05.402Z,0
2017-09-13T00:16:07.222Z,0
2017-09-13T00:17:09.052Z,0
2017-09-13T00:18:10.934Z,0
2017-09-13T00:19:12.807Z,0
2017-09-13T00:20:14.689Z,0
2017-09-13T00:21:28.849Z,0
2017-09-13T00:22:30.725Z,0
2017-09-13T00:23:32.604Z,0
2017-09-13T00:24:34.492Z,0
2017-09-13T00:25:36.310Z,0
2017-09-13T00:26:38.140Z,0
2017-09-13T00:27:40.019Z,0
2017-09-13T00:28:41.897Z,0
2017-09-13T00:29:43.787Z,0
2017-09-13T00:30:57.995Z,0
2017-09-13T00:31:59.872Z,0
2017-09-13T00:33:01.753Z,0
2017-09-13T00:34:03.628Z,0
2017-09-13T00:35:05.451Z,0
2017-09-13T00:36:07.266Z,0
2017-09-13T00:37:09.145Z,0
2017-09-13T00:38:11.020Z,0
2017-09-13T00:39:12.933Z,0
2017-09-13T00:40:27.058Z,0
2017-09-13T00:41:28.934Z,0
2017-09-13T00:42:30.819Z,0
2017-09-13T00:43:32.689Z,0
2017-09-13T00:44:34.509Z,0
2017-09-13T00:45:36.329Z,0
2017-09-13T00:46:38.205Z,0
2017-09-13T00:47:40.093Z,0
2017-09-13T00:48:41.973Z,0
2017-09-13T00:49:56.138Z,0
2017-09-13T00:50:58.025Z,0
2017-09-13T00:51:59.899Z,0
2017-09-13T00:53:01.775Z,0
2017-09-13T00:54:03.594Z,0
2017-09-13T00:55:05.414Z,0
2017-09-13T00:56:07.290Z,0
2017-09-13T00:57:09.181Z,0
2017-09-13T00:58:11.063Z,0
2017-09-13T00:59:25.247Z,0
2017-09-13T01:00:27.097Z,0
2017-09-13T01:01:28.977Z,0
2017-09-13T01:02:30.865Z,0
2017-09-13T01:03:32.684Z,0
2017-09-13T01:04:34.502Z,0
2017-09-13T01:05:36.381Z,0
2017-09-13T01:06:38.259Z,0
2017-09-13T01:07:40.138Z,0
2017-09-13T01:08:54.293Z,0
2017-09-13T01:09:56.169Z,0
2017-09-13T01:10:58.054Z,0
2017-09-13T01:11:59.929Z,0
2017-09-13T01:13:01.747Z,0
2017-09-13T01:14:03.560Z,0
2017-09-13T01:15:05.435Z,0
2017-09-13T01:16:07.310Z,0
2017-09-13T01:17:09.198Z,0
2017-09-13T01:18:23.345Z,0
2017-09-13T01:19:25.218Z,0
2017-09-13T01:20:27.100Z,0
2017-09-13T01:21:28.976Z,0
2017-09-13T01:22:30.794Z,0
2017-09-13T01:23:32.608Z,0
2017-09-13T01:24:34.492Z,0
2017-09-13T01:25:36.377Z,0
2017-09-13T01:26:38.253Z,0
2017-09-13T01:27:52.400Z,0
2017-09-13T01:28:54.282Z,0
2017-09-13T01:29:56.152Z,0
2017-09-13T01:30:58.029Z,0
2017-09-13T01:31:59.845Z,0
2017-09-13T01:33:01.661Z,0
2017-09-13T01:34:03.539Z,0
2017-09-13T01:35:05.410Z,0
2017-09-13T01:36:07.287Z,0
2017-09-13T01:37:21.436Z,0
2017-09-13T01:38:23.322Z,0
2017-09-13T01:39:25.211Z,0
2017-09-13T01:40:27.086Z,0
2017-09-13T01:41:28.900Z,0
2017-09-13T01:42:30.714Z,0
2017-09-13T01:43:32.602Z,0
2017-09-13T01:44:34.477Z,0
2017-09-13T01:45:36.352Z,0
2017-09-13T01:46:50.537Z,0
2017-09-13T01:47:52.411Z,0
2017-09-13T01:48:54.291Z,0
2017-09-13T01:49:56.165Z,0
2017-09-13T01:50:57.982Z,0
2017-09-13T01:51:59.796Z,0
2017-09-13T01:53:01.681Z,0
2017-09-13T01:54:03.559Z,0
2017-09-13T01:55:05.431Z,0
2017-09-13T01:56:19.592Z,0
2017-09-13T01:57:21.466Z,0
2017-09-13T01:58:23.346Z,0
2017-09-13T01:59:25.223Z,0
2017-09-13T02:00:27.044Z,0
2017-09-13T02:01:28.865Z,0
2017-09-13T02:02:30.738Z,0
2017-09-13T02:03:32.626Z,0
2017-09-13T02:04:34.501Z,0
2017-09-13T02:05:48.697Z,0
2017-09-13T02:06:50.574Z,0
2017-09-13T02:07:52.464Z,0
2017-09-13T02:08:54.338Z,0
2017-09-13T02:09:56.157Z,0
2017-09-13T02:10:57.980Z,0
2017-09-13T02:11:59.860Z,0
2017-09-13T02:13:01.735Z,0
2017-09-13T02:14:03.612Z,0
2017-09-13T02:15:17.763Z,0
2017-09-13T02:16:19.649Z,0
2017-09-13T02:17:21.537Z,0
2017-09-13T02:18:23.407Z,0
2017-09-13T02:19:25.234Z,0
2017-09-13T02:20:27.049Z,0
2017-09-13T02:21:28.941Z,0
2017-09-13T02:22:30.815Z,0
2017-09-13T02:23:32.694Z,0
2017-09-13T02:24:46.893Z,0
2017-09-13T02:25:48.766Z,0
2017-09-13T02:26:50.647Z,0
2017-09-13T02:27:52.522Z,0
2017-09-13T02:28:54.339Z,0
2017-09-13T02:29:56.153Z,0
2017-09-13T02:30:58.027Z,0
2017-09-13T02:31:59.916Z,0
2017-09-13T02:33:01.793Z,0
2017-09-13T02:34:16.002Z,0
2017-09-13T02:35:17.879Z,0
2017-09-13T02:36:19.759Z,0
2017-09-13T02:37:21.636Z,0
2017-09-13T02:38:23.466Z,0
2017-09-13T02:39:25.278Z,0
2017-09-13T02:40:27.578Z,0
2017-09-13T02:41:29.488Z,0
2017-09-13T02:42:31.562Z,0
2017-09-13T02:43:45.773Z,0
2017-09-13T02:44:47.917Z,0
2017-09-13T02:45:50.165Z,0
2017-09-13T02:46:52.000Z,0
2017-09-13T02:47:53.815Z,0
2017-09-13T02:48:55.634Z,0
2017-09-13T02:49:57.510Z,0
2017-09-13T02:50:59.385Z,0
2017-09-13T02:52:01.261Z,0
2017-09-13T02:53:15.420Z,0
2017-09-13T02:54:17.296Z,0
2017-09-13T02:55:19.173Z,0
2017-09-13T02:56:21.048Z,0
2017-09-13T02:57:22.868Z,0
2017-09-13T02:58:24.693Z,0
2017-09-13T02:59:26.574Z,0
2017-09-13T03:00:28.453Z,0
2017-09-13T03:01:30.328Z,0
2017-09-13T03:02:44.476Z,0
2017-09-13T03:03:46.353Z,0
2017-09-13T03:04:48.243Z,0
2017-09-13T03:05:50.121Z,0
2017-09-13T03:06:51.936Z,0
2017-09-13T03:07:53.753Z,0
2017-09-13T03:08:55.628Z,0
2017-09-13T03:09:57.511Z,0
2017-09-13T03:10:59.387Z,0
2017-09-13T03:12:13.546Z,0
2017-09-13T03:13:15.423Z,0
2017-09-13T03:14:17.305Z,0
2017-09-13T03:15:19.182Z,0
2017-09-13T03:16:21.002Z,0
2017-09-13T03:17:22.815Z,0
2017-09-13T03:18:24.692Z,0
2017-09-13T03:19:26.569Z,0
2017-09-13T03:20:28.455Z,0
2017-09-13T03:21:42.605Z,0
2017-09-13T03:22:44.497Z,0
2017-09-13T03:23:46.379Z,0
2017-09-13T03:24:48.258Z,0
2017-09-13T03:25:50.073Z,0
2017-09-13T03:26:51.889Z,0
2017-09-13T03:27:53.768Z,0
2017-09-13T03:28:55.658Z,0
2017-09-13T03:29:57.537Z,0
2017-09-13T03:31:11.739Z,0
2017-09-13T03:32:13.619Z,0
2017-09-13T03:33:15.502Z,0
2017-09-13T03:34:17.379Z,0
2017-09-13T03:35:19.193Z,0
2017-09-13T03:36:21.019Z,0
2017-09-13T03:37:22.905Z,0
2017-09-13T03:38:24.780Z,0
2017-09-13T03:39:26.661Z,0
2017-09-13T03:40:40.820Z,0
2017-09-13T03:41:42.697Z,0
2017-09-13T03:42:44.590Z,0
2017-09-13T03:43:46.469Z,0
2017-09-13T03:44:48.286Z,0
2017-09-13T03:45:50.101Z,0
2017-09-13T03:46:51.940Z,0
2017-09-13T03:47:53.797Z,0
2017-09-13T03:48:55.621Z,0
2017-09-13T03:50:09.779Z,0
2017-09-13T03:51:11.668Z,0
2017-09-13T03:52:13.552Z,0
2017-09-13T03:53:15.430Z,0
2017-09-13T03:54:17.247Z,0
2017-09-13T03:55:19.061Z,0
2017-09-13T03:56:20.939Z,0
2017-09-13T03:57:22.818Z,0
2017-09-13T03:58:24.696Z,0
2017-09-13T03:59:38.894Z,0
2017-09-13T04:00:40.775Z,0
2017-09-13T04:01:42.658Z,0
2017-09-13T04:02:44.538Z,4
2017-09-13T04:03:46.353Z,4
2017-09-13T04:04:48.177Z,0
2017-09-13T04:05:50.057Z,4
2017-09-13T04:06:51.944Z,4
2017-09-13T04:07:53.824Z,4
2017-09-13T04:09:08.033Z,4
2017-09-13T04:10:09.927Z,8
2017-09-13T04:11:11.809Z,8
2017-09-13T04:12:13.690Z,12
2017-09-13T04:13:15.513Z,16
2017-09-13T04:14:17.323Z,20
2017-09-13T04:15:19.204Z,20
2017-09-13T04:16:21.082Z,24
2017-09-13T04:17:22.965Z,28
2017-09-13T04:18:37.116Z,36
2017-09-13T04:19:39.002Z,40
2017-09-13T04:20:40.881Z,44
2017-09-13T04:21:42.760Z,52
2017-09-13T04:22:44.579Z,64
2017-09-13T04:23:46.397Z,76
2017-09-13T04:24:48.274Z,84
2017-09-13T04:25:50.154Z,100
2017-09-13T04:26:52.037Z,116
2017-09-13T04:28:06.231Z,136
2017-09-13T04:29:08.084Z,152
2017-09-13T04:30:09.977Z,172
2017-09-13T04:31:11.858Z,192
2017-09-13T04:32:13.695Z,212
2017-09-13T04:33:15.517Z,236
2017-09-13T04:34:17.410Z,260
2017-09-13T04:35:19.290Z,288
2017-09-13T04:36:21.167Z,312
2017-09-13T04:37:35.320Z,340
2017-09-13T04:38:37.199Z,372
2017-09-13T04:39:39.081Z,408
2017-09-13T04:40:40.973Z,460
2017-09-13T04:41:42.791Z,512
2017-09-13T04:42:44.610Z,560
2017-09-13T04:43:46.489Z,604
2017-09-13T04:44:48.369Z,660
2017-09-13T04:45:50.250Z,716
2017-09-13T04:47:04.413Z,768
2017-09-13T04:48:06.292Z,812
2017-09-13T04:49:08.179Z,860
2017-09-13T04:50:10.062Z,904
2017-09-13T04:51:11.881Z,936
2017-09-13T04:52:13.698Z,968
2017-09-13T04:53:15.584Z,1012
2017-09-13T04:54:17.466Z,1052
2017-09-13T04:55:19.350Z,1088
2017-09-13T04:56:33.510Z,1128
2017-09-13T04:57:35.385Z,1168
2017-09-13T04:58:37.269Z,1212
2017-09-13T04:59:39.151Z,1252
2017-09-13T05:00:40.985Z,1296
2017-09-13T05:01:42.803Z,1336
2017-09-13T05:02:44.694Z,1384
2017-09-13T05:03:46.575Z,1440
2017-09-13T05:04:48.456Z,1492
2017-09-13T05:06:02.668Z,1552
2017-09-13T05:07:04.555Z,1604
2017-09-13T05:08:06.436Z,1652
2017-09-13T05:09:08.320Z,1700
2017-09-13T05:10:10.141Z,1744
2017-09-13T05:11:11.959Z,1788
2017-09-13T05:12:13.843Z,1824
2017-09-13T05:13:15.727Z,1868
2017-09-13T05:14:17.612Z,1904
2017-09-13T05:15:31.799Z,1948
2017-09-13T05:16:33.682Z,1988
2017-09-13T05:17:35.568Z,2040
2017-09-13T05:18:37.449Z,2088
2017-09-13T05:19:39.272Z,2152
2017-09-13T05:20:41.093Z,2232
2017-09-13T05:21:42.981Z,2328
2017-09-13T05:22:44.862Z,2444
2017-09-13T05:23:46.754Z,2616
2017-09-13T05:25:00.910Z,2896
2017-09-13T05:26:02.789Z,3168
2017-09-13T05:27:04.680Z,3392
2017-09-13T05:28:06.564Z,4080
2017-09-13T05:29:08.386Z,4512
2017-09-13T05:30:10.206Z,4528
2017-09-13T05:31:12.084Z,4764
2017-09-13T05:32:13.963Z,4888
2017-09-13T05:33:15.854Z,5116
2017-09-13T05:34:30.008Z,5232
2017-09-13T05:35:31.887Z,5188
2017-09-13T05:36:33.778Z,5236
2017-09-13T05:37:35.661Z,5268
2017-09-13T05:38:37.480Z,5332
2017-09-13T05:39:39.298Z,5420
2017-09-13T05:40:41.182Z,5536
2017-09-13T05:41:43.063Z,5640
2017-09-13T05:42:44.949Z,5796
2017-09-13T05:43:59.104Z,5984
2017-09-13T05:45:00.989Z,6092
2017-09-13T05:46:02.873Z,6244
2017-09-13T05:47:04.757Z,6320
2017-09-13T05:48:06.591Z,6376
2017-09-13T05:49:08.411Z,6400
2017-09-13T05:50:10.293Z,6348
2017-09-13T05:51:12.179Z,6108
2017-09-13T05:52:14.060Z,5760
2017-09-13T05:53:28.276Z,5188
2017-09-13T05:54:30.158Z,4716
2017-09-13T05:55:32.045Z,4384
2017-09-13T05:56:33.928Z,4096
2017-09-13T05:57:35.749Z,3972
2017-09-13T05:58:37.580Z,3820
2017-09-13T05:59:39.462Z,3648
2017-09-13T06:00:41.346Z,3628
2017-09-13T06:01:43.240Z,3476
2017-09-13T06:02:57.395Z,3484
2017-09-13T06:03:59.291Z,3612
2017-09-13T06:05:01.183Z,3896
2017-09-13T06:06:03.061Z,4244
2017-09-13T06:07:04.882Z,4588
2017-09-13T06:08:06.704Z,4952
2017-09-13T06:09:08.590Z,5324
2017-09-13T06:10:10.474Z,5644
2017-09-13T06:11:12.356Z,6040
2017-09-13T06:12:26.512Z,6232
2017-09-13T06:13:28.398Z,6260
2017-09-13T06:14:30.283Z,6288
2017-09-13T06:15:32.170Z,6316
2017-09-13T06:16:33.989Z,6276
2017-09-13T06:17:35.808Z,6296
2017-09-13T06:18:37.690Z,6440
2017-09-13T06:19:39.572Z,6624
2017-09-13T06:20:41.457Z,6912
2017-09-13T06:21:55.613Z,6932
2017-09-13T06:22:57.496Z,6860
2017-09-13T06:23:59.383Z,6336
2017-09-13T06:25:01.266Z,5824
2017-09-13T06:26:03.098Z,5212
2017-09-13T06:27:04.907Z,4952
2017-09-13T06:28:06.789Z,4864
2017-09-13T06:29:08.667Z,5052
2017-09-13T06:30:10.561Z,5280
2017-09-13T06:31:24.717Z,5460
2017-09-13T06:32:26.600Z,5552
2017-09-13T06:33:28.494Z,5444
2017-09-13T06:34:30.380Z,5156
2017-09-13T06:35:32.208Z,4812
2017-09-13T06:36:34.021Z,4404
2017-09-13T06:37:35.913Z,4256
2017-09-13T06:38:37.808Z,4324
2017-09-13T06:39:39.688Z,4208
2017-09-13T06:40:53.848Z,4184
2017-09-13T06:41:55.728Z,4412
2017-09-13T06:42:57.624Z,4236
2017-09-13T06:43:59.508Z,4128
2017-09-13T06:45:01.330Z,3828
2017-09-13T06:46:03.161Z,3628
2017-09-13T06:47:05.044Z,3560
2017-09-13T06:48:06.926Z,3640
2017-09-13T06:49:08.809Z,3636
2017-09-13T06:50:22.965Z,3716
2017-09-13T06:51:24.848Z,4040
2017-09-13T06:52:26.736Z,4052
2017-09-13T06:53:28.619Z,4204
2017-09-13T06:54:30.443Z,4244
2017-09-13T06:55:32.262Z,4344
2017-09-13T06:56:34.156Z,4768
2017-09-13T06:57:36.041Z,4572
2017-09-13T06:58:37.925Z,4632
2017-09-13T06:59:52.081Z,4940
2017-09-13T07:00:53.980Z,5160
2017-09-13T07:01:55.867Z,5280
2017-09-13T07:02:57.752Z,5432
2017-09-13T07:03:59.574Z,5564
2017-09-13T07:05:01.394Z,5872
2017-09-13T07:06:03.274Z,5612
2017-09-13T07:07:05.160Z,5468
2017-09-13T07:08:07.042Z,5144
2017-09-13T07:09:21.199Z,5488
2017-09-13T07:10:23.080Z,6196
2017-09-13T07:11:24.964Z,7744
2017-09-13T07:12:26.847Z,8388
2017-09-13T07:13:28.672Z,9312
2017-09-13T07:14:30.506Z,9988
2017-09-13T07:15:32.391Z,9852
2017-09-13T07:16:34.285Z,9080
2017-09-13T07:17:36.160Z,8384
2017-09-13T07:18:50.324Z,7420
2017-09-13T07:19:52.202Z,7228
2017-09-13T07:20:54.098Z,7520
2017-09-13T07:21:55.989Z,8380
2017-09-13T07:22:57.812Z,9728
2017-09-13T07:23:59.637Z,10896
2017-09-13T07:25:01.520Z,11888
2017-09-13T07:26:03.415Z,11976
2017-09-13T07:27:05.298Z,11176
2017-09-13T07:28:19.455Z,9336
2017-09-13T07:29:21.338Z,8268
2017-09-13T07:30:23.230Z,8068
2017-09-13T07:31:25.110Z,8316
2017-09-13T07:32:26.937Z,8500
2017-09-13T07:33:28.759Z,8664
2017-09-13T07:34:30.641Z,8952
2017-09-13T07:35:32.523Z,9344
2017-09-13T07:36:34.406Z,9764
2017-09-13T07:37:48.566Z,10392
2017-09-13T07:38:50.450Z,10512
2017-09-13T07:39:52.334Z,10324
2017-09-13T07:40:54.218Z,9848
2017-09-13T07:41:56.042Z,9600
2017-09-13T07:42:57.878Z,9752
2017-09-13T07:43:59.761Z,9480
2017-09-13T07:45:01.656Z,8696
2017-09-13T07:46:03.539Z,8120
2017-09-13T07:47:17.696Z,7480
2017-09-13T07:48:19.577Z,7184
2017-09-13T07:49:21.466Z,6728
2017-09-13T07:50:23.350Z,6324
2017-09-13T07:51:25.182Z,5976
2017-09-13T07:52:27.004Z,5764
2017-09-13T07:53:28.887Z,6160
2017-09-13T07:54:30.770Z,7052
2017-09-13T07:55:32.655Z,7600
2017-09-13T07:56:46.814Z,7428
2017-09-13T07:57:48.696Z,6636
2017-09-13T07:58:50.605Z,5508
2017-09-13T07:59:52.482Z,4360
2017-09-13T08:00:54.313Z,3396
2017-09-13T08:01:56.127Z,2856
2017-09-13T08:02:58.009Z,2960
2017-09-13T08:03:59.891Z,3744
2017-09-13T08:05:02.106Z,5144
2017-09-13T08:06:16.268Z,7420
2017-09-13T08:07:18.152Z,9164
2017-09-13T08:08:20.039Z,10112
2017-09-13T08:09:21.922Z,9708
2017-09-13T08:10:23.755Z,8612
2017-09-13T08:11:25.581Z,7508
2017-09-13T08:12:27.464Z,6856
2017-09-13T08:13:29.347Z,6660
2017-09-13T08:14:31.240Z,7156
2017-09-13T08:15:45.397Z,7696
2017-09-13T08:16:47.279Z,8224
2017-09-13T08:17:49.164Z,8352
2017-09-13T08:18:51.047Z,7748
2017-09-13T08:19:52.873Z,6512
2017-09-13T08:20:54.697Z,5576
2017-09-13T08:21:56.588Z,5612
2017-09-13T08:22:58.939Z,6636
2017-09-13T08:24:00.788Z,7932
2017-09-13T08:25:14.995Z,8976
2017-09-13T08:26:16.880Z,9380
2017-09-13T08:27:18.765Z,9052
2017-09-13T08:28:20.649Z,8148
2017-09-13T08:29:22.471Z,6764
2017-09-13T08:30:24.290Z,5452
2017-09-13T08:31:26.182Z,5020
2017-09-13T08:32:28.066Z,4848
2017-09-13T08:33:29.950Z,4804
2017-09-13T08:34:44.105Z,5332
2017-09-13T08:35:45.987Z,7092
2017-09-13T08:36:47.877Z,9192
2017-09-13T08:37:49.758Z,9988
2017-09-13T08:38:51.628Z,8952
2017-09-13T08:39:53.416Z,8160
2017-09-13T08:40:55.299Z,8508
2017-09-13T08:41:57.184Z,9108
2017-09-13T08:42:59.068Z,8832
2017-09-13T08:44:13.224Z,6716
2017-09-13T08:45:15.110Z,6596
2017-09-13T08:46:16.998Z,6428
2017-09-13T08:47:18.883Z,6136
2017-09-13T08:48:20.719Z,6284
2017-09-13T08:49:22.553Z,6908
2017-09-13T08:50:24.399Z,7496
2017-09-13T08:51:26.222Z,8088
2017-09-13T08:52:28.058Z,10048
2017-09-13T08:53:42.239Z,14068
2017-09-13T08:54:44.124Z,16032
2017-09-13T08:55:46.014Z,14756
2017-09-13T08:56:47.900Z,12176
2017-09-13T08:57:49.723Z,11636
2017-09-13T08:58:51.566Z,12012
2017-09-13T08:59:53.448Z,12428
2017-09-13T09:00:55.335Z,13060
2017-09-13T09:01:57.220Z,14164
2017-09-13T09:03:11.380Z,13536
2017-09-13T09:04:13.265Z,10064
2017-09-13T09:05:15.153Z,9828
2017-09-13T09:06:17.057Z,11384
2017-09-13T09:07:18.864Z,10852
2017-09-13T09:08:20.688Z,11296
2017-09-13T09:09:22.570Z,11056
2017-09-13T09:10:24.420Z,12000
2017-09-13T09:11:26.255Z,12344
2017-09-13T09:12:40.411Z,13292
2017-09-13T09:13:42.296Z,15112
2017-09-13T09:14:44.185Z,14628
2017-09-13T09:15:46.070Z,11412
2017-09-13T09:16:47.894Z,8836
2017-09-13T09:17:49.716Z,9028
2017-09-13T09:18:51.601Z,8948
2017-09-13T09:19:53.487Z,11244
2017-09-13T09:20:55.385Z,11532
2017-09-13T09:22:09.546Z,13800
2017-09-13T09:23:11.431Z,12964
2017-09-13T09:24:13.321Z,12516
2017-09-13T09:25:15.206Z,13616
2017-09-13T09:26:17.031Z,14084
2017-09-13T09:27:18.870Z,12148
2017-09-13T09:28:20.750Z,9552
2017-09-13T09:29:22.645Z,7556
2017-09-13T09:30:24.529Z,7144
2017-09-13T09:31:38.706Z,8188
2017-09-13T09:32:40.588Z,9172
2017-09-13T09:33:42.479Z,9648
2017-09-13T09:34:44.364Z,9680
2017-09-13T09:35:46.201Z,8860
2017-09-13T09:36:48.025Z,8104
2017-09-13T09:37:49.909Z,8544
2017-09-13T09:38:51.799Z,9876
2017-09-13T09:39:53.690Z,11104
2017-09-13T09:41:07.865Z,11772
2017-09-13T09:42:09.748Z,12348
2017-09-13T09:43:11.638Z,12520
2017-09-13T09:44:13.533Z,12320
2017-09-13T09:45:15.362Z,12192
2017-09-13T09:46:17.184Z,9120
2017-09-13T09:47:19.070Z,8988
2017-09-13T09:48:20.954Z,9224
2017-09-13T09:49:22.846Z,9216
2017-09-13T09:50:37.065Z,8900
2017-09-13T09:51:38.975Z,8908
2017-09-13T09:52:40.841Z,7932
2017-09-13T09:53:42.734Z,7216
2017-09-13T09:54:44.560Z,6736
2017-09-13T09:55:46.383Z,6724
2017-09-13T09:56:48.269Z,6848
2017-09-13T09:57:50.154Z,6964
2017-09-13T09:58:52.040Z,7376
2017-09-13T10:00:06.198Z,8792
2017-09-13T10:01:08.085Z,9064
2017-09-13T10:02:09.973Z,9940
2017-09-13T10:03:11.857Z,10192
2017-09-13T10:04:13.682Z,9240
2017-09-13T10:05:15.501Z,8780
2017-09-13T10:06:17.385Z,9416
2017-09-13T10:07:19.272Z,10796
2017-09-13T10:08:21.158Z,10600
2017-09-13T10:09:35.324Z,10200
2017-09-13T10:10:37.204Z,10388
2017-09-13T10:11:39.093Z,10840
2017-09-13T10:12:40.997Z,11932
2017-09-13T10:13:42.806Z,13020
2017-09-13T10:14:44.628Z,12764
2017-09-13T10:15:46.523Z,13708
2017-09-13T10:16:48.412Z,13560
2017-09-13T10:17:50.295Z,13496
2017-09-13T10:19:04.455Z,13804
2017-09-13T10:20:06.341Z,12892
2017-09-13T10:21:08.232Z,11904
2017-09-13T10:22:10.118Z,10800
2017-09-13T10:23:11.944Z,9340
2017-09-13T10:24:13.765Z,9788
2017-09-13T10:25:15.661Z,9696
2017-09-13T10:26:17.551Z,9656
2017-09-13T10:27:19.435Z,9500
2017-09-13T10:28:33.594Z,9840
2017-09-13T10:29:35.481Z,10612
2017-09-13T10:30:37.381Z,8716
2017-09-13T10:31:39.268Z,9772
2017-09-13T10:32:41.104Z,9600
2017-09-13T10:33:42.929Z,10060
2017-09-13T10:34:44.833Z,11504
2017-09-13T10:35:46.737Z,12880
2017-09-13T10:36:48.622Z,13344
2017-09-13T10:38:02.779Z,11488
2017-09-13T10:39:04.666Z,11912
2017-09-13T10:40:06.556Z,12552
2017-09-13T10:41:08.443Z,13076
2017-09-13T10:42:10.277Z,13584
2017-09-13T10:43:12.102Z,13448
2017-09-13T10:44:13.988Z,13572
2017-09-13T10:45:15.875Z,14156
2017-09-13T10:46:17.762Z,15404
2017-09-13T10:47:31.972Z,15048
2017-09-13T10:48:33.875Z,13852
2017-09-13T10:49:35.819Z,13500
2017-09-13T10:50:37.705Z,13136
2017-09-13T10:51:39.531Z,14580
2017-09-13T10:52:41.356Z,13800
2017-09-13T10:53:43.249Z,12104
2017-09-13T10:54:45.135Z,11692
2017-09-13T10:55:47.023Z,11808
2017-09-13T10:57:01.180Z,13268
2017-09-13T10:58:03.065Z,12748
2017-09-13T10:59:04.966Z,10096
2017-09-13T11:00:06.841Z,8036
2017-09-13T11:01:08.679Z,8512
2017-09-13T11:02:10.505Z,8500
2017-09-13T11:03:12.390Z,8276
2017-09-13T11:04:14.639Z,9016
2017-09-13T11:05:16.866Z,8852
2017-09-13T11:06:31.032Z,9480
2017-09-13T11:07:32.917Z,9996
2017-09-13T11:08:34.804Z,8624
2017-09-13T11:09:36.688Z,7756
2017-09-13T11:10:38.518Z,7644
2017-09-13T11:11:40.344Z,7496
2017-09-13T11:12:42.224Z,7924
2017-09-13T11:13:44.108Z,9128
2017-09-13T11:14:45.994Z,9028
2017-09-13T11:16:00.152Z,9536
2017-09-13T11:17:02.039Z,10420
2017-09-13T11:18:03.932Z,11696
2017-09-13T11:19:05.818Z,13196
2017-09-13T11:20:07.646Z,14012
2017-09-13T11:21:09.466Z,13412
2017-09-13T11:22:11.351Z,13688
2017-09-13T11:23:13.237Z,14840
2017-09-13T11:24:15.484Z,16384
2017-09-13T11:25:29.616Z,12716
2017-09-13T11:26:31.505Z,11488
2017-09-13T11:27:33.389Z,11720
2017-09-13T11:28:35.276Z,13432
2017-09-13T11:29:37.107Z,15380
2017-09-13T11:30:38.933Z,15252
2017-09-13T11:31:40.830Z,16224
2017-09-13T11:32:42.716Z,15480
2017-09-13T11:33:44.601Z,13860
2017-09-13T11:34:58.765Z,15832
2017-09-13T11:36:00.655Z,15620
2017-09-13T11:37:02.541Z,15720
2017-09-13T11:38:04.425Z,16672
2017-09-13T11:39:06.264Z,12160
2017-09-13T11:40:08.090Z,11360
2017-09-13T11:41:09.977Z,14332
2017-09-13T11:42:11.864Z,14252
2017-09-13T11:43:13.760Z,17344
2017-09-13T11:44:27.919Z,17440
2017-09-13T11:45:29.818Z,17536
2017-09-13T11:46:31.708Z,10916
2017-09-13T11:47:33.599Z,11344
2017-09-13T11:48:35.427Z,13576
2017-09-13T11:49:37.254Z,14988
2017-09-13T11:50:39.140Z,15580
2017-09-13T11:51:41.029Z,15636
2017-09-13T11:52:42.912Z,15820
2017-09-13T11:53:57.083Z,11596
2017-09-13T11:54:58.974Z,10824
2017-09-13T11:56:00.866Z,10284
2017-09-13T11:57:02.753Z,11176
2017-09-13T11:58:04.578Z,9100
2017-09-13T11:59:06.403Z,6852
2017-09-13T12:00:08.288Z,6088
2017-09-13T12:01:10.139Z,6680
2017-09-13T12:02:11.964Z,7076
2017-09-13T12:03:26.124Z,7852
2017-09-13T12:04:28.009Z,8224
2017-09-13T12:05:29.897Z,6356
2017-09-13T12:06:31.783Z,5348
2017-09-13T12:07:33.609Z,5220
2017-09-13T12:08:35.433Z,5240
2017-09-13T12:09:37.328Z,6368
2017-09-13T12:10:39.239Z,9288
2017-09-13T12:11:41.101Z,9720
2017-09-13T12:12:55.259Z,5532
2017-09-13T12:13:57.144Z,4968
2017-09-13T12:14:59.033Z,4972
2017-09-13T12:16:00.919Z,4892
2017-09-13T12:17:02.759Z,5160
2017-09-13T12:18:04.569Z,5104
2017-09-13T12:19:06.453Z,5180
2017-09-13T12:20:08.338Z,5100
2017-09-13T12:21:10.223Z,5236
2017-09-13T12:22:24.381Z,5180
2017-09-13T12:23:26.266Z,5508
2017-09-13T12:24:28.166Z,6672
2017-09-13T12:25:30.065Z,9452
2017-09-13T12:26:31.894Z,11180
2017-09-13T12:27:33.725Z,11120
2017-09-13T12:28:35.623Z,9852
2017-09-13T12:29:37.501Z,8012
2017-09-13T12:30:39.384Z,6376
2017-09-13T12:31:53.547Z,5492
2017-09-13T12:32:55.434Z,5168
2017-09-13T12:33:57.327Z,5040
2017-09-13T12:34:59.212Z,5012
2017-09-13T12:36:01.036Z,5212
2017-09-13T12:37:02.877Z,6156
2017-09-13T12:38:04.759Z,7744
2017-09-13T12:39:06.646Z,7744
2017-09-13T12:40:08.536Z,6232
2017-09-13T12:41:22.693Z,5564
2017-09-13T12:42:24.586Z,5520
2017-09-13T12:43:26.479Z,5724
2017-09-13T12:44:28.359Z,6076
2017-09-13T12:45:30.182Z,6580
2017-09-13T12:46:32.010Z,7144
2017-09-13T12:47:33.893Z,7332
2017-09-13T12:48:35.778Z,7452
2017-09-13T12:49:37.659Z,9248
2017-09-13T12:50:51.826Z,10140
2017-09-13T12:51:53.718Z,10368
2017-09-13T12:52:55.606Z,11736
2017-09-13T12:53:57.501Z,12848
2017-09-13T12:54:59.323Z,12240
2017-09-13T12:56:01.144Z,11928
2017-09-13T12:57:03.037Z,11268
2017-09-13T12:58:04.921Z,10820
2017-09-13T12:59:06.813Z,10640
2017-09-13T13:00:20.982Z,8536
2017-09-13T13:01:22.867Z,7432
2017-09-13T13:02:24.756Z,7116
2017-09-13T13:03:26.649Z,6560
2017-09-13T13:04:28.481Z,6460
2017-09-13T13:05:30.341Z,6440
2017-09-13T13:06:32.702Z,6448
2017-09-13T13:07:34.727Z,6332
2017-09-13T13:08:36.619Z,6528
2017-09-13T13:09:50.784Z,7824
2017-09-13T13:10:52.667Z,8512
2017-09-13T13:11:54.563Z,7168
2017-09-13T13:12:56.464Z,6704
2017-09-13T13:13:58.663Z,6368
2017-09-13T13:15:00.518Z,5928
2017-09-13T13:16:02.415Z,5756
2017-09-13T13:17:04.296Z,5588
2017-09-13T13:18:06.179Z,5680
2017-09-13T13:19:20.355Z,5492
2017-09-13T13:20:22.239Z,5524
2017-09-13T13:21:24.125Z,5508
2017-09-13T13:22:26.026Z,5376
2017-09-13T13:23:27.864Z,5320
2017-09-13T13:24:29.686Z,5184
2017-09-13T13:25:31.566Z,5324
2017-09-13T13:26:33.463Z,5480
2017-09-13T13:27:35.352Z,5704
2017-09-13T13:28:49.512Z,6112
2017-09-13T13:29:51.415Z,5848
2017-09-13T13:30:53.298Z,5748
2017-09-13T13:31:55.190Z,5820
2017-09-13T13:32:57.024Z,5812
2017-09-13T13:33:58.847Z,6072
2017-09-13T13:35:00.743Z,6772
2017-09-13T13:36:02.625Z,7600
2017-09-13T13:37:04.515Z,8256
2017-09-13T13:38:18.680Z,9084
2017-09-13T13:39:20.567Z,9152
2017-09-13T13:40:22.464Z,8948
2017-09-13T13:41:24.350Z,9168
2017-09-13T13:42:26.170Z,9584
2017-09-13T13:43:28.002Z,8644
2017-09-13T13:44:29.897Z,7884
2017-09-13T13:45:31.783Z,6460
2017-09-13T13:46:33.668Z,5368
2017-09-13T13:47:47.843Z,4788
2017-09-13T13:48:49.732Z,5084
2017-09-13T13:49:51.623Z,4908
2017-09-13T13:50:53.514Z,4668
2017-09-13T13:51:55.338Z,4776
2017-09-13T13:52:57.172Z,5492
2017-09-13T13:53:59.048Z,6936
2017-09-13T13:55:00.934Z,7044
2017-09-13T13:56:02.822Z,5448
2017-09-13T13:57:16.980Z,4688
2017-09-13T13:58:18.873Z,4136
2017-09-13T13:59:20.755Z,4120
2017-09-13T14:00:22.640Z,4460
2017-09-13T14:01:24.468Z,6024
2017-09-13T14:02:26.392Z,7028
2017-09-13T14:03:28.294Z,7732
2017-09-13T14:04:30.185Z,8180
2017-09-13T14:05:32.085Z,7884
2017-09-13T14:06:46.244Z,7240
2017-09-13T14:07:48.140Z,6332
2017-09-13T14:08:50.024Z,5180
2017-09-13T14:09:51.935Z,3988
2017-09-13T14:10:53.761Z,3052
2017-09-13T14:11:55.588Z,3224
2017-09-13T14:12:57.517Z,4708
2017-09-13T14:13:59.383Z,6272
2017-09-13T14:15:01.269Z,6544
2017-09-13T14:16:15.474Z,6304
2017-09-13T14:17:17.372Z,5444
2017-09-13T14:18:19.344Z,4296
2017-09-13T14:19:21.218Z,3900
2017-09-13T14:20:23.040Z,3824
2017-09-13T14:21:24.867Z,3740
2017-09-13T14:22:26.753Z,4116
2017-09-13T14:23:28.639Z,4252